Trenton, ND

7:14 PM CDT on July 18, 2019 (GMT -0500)
Harvest Hills | | Change Station
Active Advisory: Flood Warning

Elev 2087 ft 48.17 °N, 103.67 °W | Updated 1 minute ago

Clear
Clear
81.5 °F
Feels Like 81 °F
N
0.2
Wind Variable Wind from WNW
Gusts 1.1 mph

Today
High -- | Low -- °F
--% Chance of Precip.
Yesterday
High -- | Low -- °F
Precip. -- in
Pressure 29.57 in
Visibility 10.0 miles
Clouds Clear
Heat Index 81 °F
Dew Point 53 °F
Humidity 38%
Rainfall 0.00 in
Snow Depth Not available.
6:14 AM 9:48 PM
Waning Gibbous, 96% visible
METAR KISN 182352Z AUTO 27012KT 10SM CLR 29/09 A2961 RMK AO2 SLP014 T02890089 10294 20261 58009
Pressure 29.57 in
Visibility 10.0 miles
Clouds Clear
Heat Index 81 °F
Dew Point 53 °F
Humidity 38%
Rainfall 0.00 in
Snow Depth Not available.
6:14 AM 9:48 PM
Waning Gibbous, 96% visible
METAR KISN 182352Z AUTO 27012KT 10SM CLR 29/09 A2961 RMK AO2 SLP014 T02890089 10294 20261 58009

Get Your Daily Forecast Email!

Thanks for signing up!

Be on the lookout for a verification email in your inbox.

You'll start receiving severe weather alerts in your inbox..

×

10-Day Weather Forecast

Almanac

Astronomy

Jul. 18, 2019 Rise Set
Actual Time
Civil Twilight
Nautical Twilight
Astronomical Twilight
Moon
Length of Visible Light
Length of Day
Tomorrow will be .
, % of the Moon is Illuminated

Today's Extremes

State Highs State Lows

Community

WunderPhotos

Category 6

Welcome to Category 6. This is the collective home for Weather Underground's featured writeups by Dr. Jeff Masters (right), Bob Henson (left), Chris Burt, and other regular contributors.

Nearby

Air Quality

  Air Quality AQ Index Pollutant
Not available.

Snow Depth

Station Depth Elevation

Earthquake Activity

City Distance Mag. Time & Date
Minimum magnitude displayed is 2.5.

Coastal Water Temperatures

Place Temperature

Stations

Nearby Weather Stations

Station Location Temp. Windchill Dew Point Humidity Wind Precip. Elev Updated Type
                   

Watches & Warnings

Flood Warning
Issued: 12:37 PM CDT Jul. 17, 2019 – National Weather Service

The Flood Warning continues for
the Missouri River near Williston.
* Until further notice.
* At 11:45 am Wednesday the stage was 24.0 feet.
* Flood stage is 22.0 feet.
* Moderate flooding is occurring and moderate flooding is forecast.
* Forecast... the river will continue rising to near 24.2 feet by
early Friday morning then begin falling.
* Impact... at 24.0 feet... water begins to cover oil well location
south and east of Williston. Wildlife management areas are flooded.
City of Williston does not flood.



             Fld observed forecasts (7am)
location stg stg day/time Thu Fri Sat sun Mon

Missouri River basin
Williston 22 24.0 Wed 12 PM 24.1 24.2 24.2 24.1 24.0


Lat... Lon 4801 10404 4815 10366 4807 10337 4795 10347
      4807 10366 4775 10404


Ajs